createdAt,value
2023-02-12T00:01:38.573Z,17.37
2023-02-12T00:04:05.156Z,17.97
2023-02-12T00:06:31.971Z,17.33
2023-02-12T00:08:59.346Z,17.57
2023-02-12T00:11:28.236Z,17.17
2023-02-12T00:21:33.504Z,17.30
2023-02-12T00:24:00.135Z,17.73
2023-02-12T00:26:26.763Z,17.70
2023-02-12T00:31:33.246Z,18.00
2023-02-12T00:34:00.552Z,17.07
2023-02-12T00:36:29.589Z,16.77
2023-02-12T00:38:57.236Z,16.90
2023-02-12T00:41:24.357Z,16.77
2023-02-12T00:43:51.580Z,16.80
2023-02-12T00:46:18.887Z,17.03
2023-02-12T00:48:45.593Z,16.90
2023-02-12T00:51:12.273Z,17.20
2023-02-12T00:53:38.964Z,17.40
2023-02-12T00:56:06.084Z,18.13
2023-02-12T00:58:32.902Z,16.63
2023-02-12T01:03:32.900Z,16.93
2023-02-12T01:05:59.448Z,17.77
2023-02-12T01:08:26.242Z,17.37
2023-02-12T01:10:58.339Z,17.03
2023-02-12T01:13:26.077Z,17.33
2023-02-12T01:18:44.865Z,16.87
2023-02-12T01:21:15.170Z,16.67
2023-02-12T01:23:42.949Z,17.23
2023-02-12T01:26:11.749Z,16.50
2023-02-12T01:28:42.833Z,16.37
2023-02-12T01:31:15.066Z,16.60
2023-02-12T01:33:43.528Z,16.87
2023-02-12T01:36:11.371Z,17.07
2023-02-12T01:38:37.924Z,16.47
2023-02-12T01:41:11.610Z,16.30
2023-02-12T01:43:38.807Z,16.83
2023-02-12T01:46:06.749Z,16.57
2023-02-12T01:48:39.097Z,17.93
2023-02-12T01:51:09.572Z,16.97
2023-02-12T01:53:41.227Z,17.27
2023-02-12T01:56:09.688Z,15.43
2023-02-12T01:58:40.025Z,16.53
2023-02-12T02:01:09.870Z,16.57
2023-02-12T02:06:20.032Z,16.13
2023-02-12T02:08:47.075Z,16.97
2023-02-12T02:11:32.059Z,17.73
2023-02-12T02:14:17.299Z,16.17
2023-02-12T02:16:51.967Z,17.33
2023-02-12T02:20:09.579Z,17.20
2023-02-12T02:22:50.123Z,16.20
2023-02-12T02:25:42.369Z,18.30
2023-02-12T02:28:32.904Z,17.27
2023-02-12T02:31:02.249Z,16.80
2023-02-12T02:33:51.431Z,18.23
2023-02-12T02:37:00.210Z,17.50
2023-02-12T02:39:41.085Z,17.60
2023-02-12T02:42:37.191Z,16.93
2023-02-12T02:45:13.582Z,17.77
2023-02-12T02:47:45.843Z,16.10
2023-02-12T02:50:16.875Z,16.27
2023-02-12T02:55:36.060Z,16.17
2023-02-12T02:58:25.450Z,16.63
2023-02-12T03:03:38.385Z,16.20
2023-02-12T03:06:13.696Z,16.33
2023-02-12T03:08:47.066Z,15.87
2023-02-12T03:11:25.482Z,16.17
2023-02-12T03:14:13.724Z,16.93
2023-02-12T03:16:47.528Z,16.07
2023-02-12T03:19:31.545Z,17.00
2023-02-12T03:22:03.297Z,16.47
2023-02-12T03:24:46.614Z,16.23
2023-02-12T03:27:26.561Z,16.30
2023-02-12T03:29:53.254Z,16.40
2023-02-12T03:32:36.294Z,15.37
2023-02-12T03:38:16.607Z,15.57
2023-02-12T03:41:06.846Z,15.30
2023-02-12T03:43:56.078Z,16.13
2023-02-12T03:46:27.725Z,15.60
2023-02-12T03:49:16.401Z,16.10
2023-02-12T03:51:45.098Z,15.53
2023-02-12T03:54:15.884Z,15.20
2023-02-12T03:56:52.233Z,15.80
2023-02-12T03:59:20.216Z,14.97
2023-02-12T04:01:49.075Z,15.07
2023-02-12T04:04:16.506Z,15.17
2023-02-12T04:06:43.802Z,16.00
2023-02-12T04:09:12.854Z,15.90
2023-02-12T04:11:54.172Z,17.00
2023-02-12T04:14:25.156Z,16.60
2023-02-12T04:17:03.539Z,16.37
2023-02-12T04:20:04.375Z,17.93
2023-02-12T04:22:54.017Z,15.77
2023-02-12T04:25:42.433Z,17.07
2023-02-12T04:28:27.611Z,17.33
2023-02-12T04:31:06.491Z,16.40
2023-02-12T04:33:41.469Z,16.97
2023-02-12T04:36:20.997Z,17.33
2023-02-12T04:38:54.062Z,17.50
2023-02-12T04:41:20.879Z,18.00
2023-02-12T04:43:47.449Z,17.33
2023-02-12T04:46:14.132Z,17.07
2023-02-12T04:48:58.833Z,18.30
2023-02-12T04:51:25.580Z,16.93
2023-02-12T04:53:52.173Z,17.90
2023-02-12T04:56:18.792Z,17.53
2023-02-12T04:58:45.507Z,17.33
2023-02-12T05:03:49.645Z,17.43
2023-02-12T05:06:16.250Z,17.23
2023-02-12T05:08:42.836Z,16.97
2023-02-12T05:11:11.631Z,16.80
2023-02-12T05:13:38.844Z,16.83
2023-02-12T05:16:07.318Z,17.57
2023-02-12T05:18:34.865Z,16.90
2023-02-12T05:23:36.915Z,17.43
2023-02-12T05:26:06.715Z,17.00
2023-02-12T05:28:33.440Z,17.53
2023-02-12T05:31:02.102Z,16.80
2023-02-12T05:33:28.803Z,16.83
2023-02-12T05:35:55.971Z,17.00
2023-02-12T05:38:22.965Z,16.97
2023-02-12T05:40:49.526Z,17.40
2023-02-12T05:43:16.113Z,17.97
2023-02-12T05:45:45.130Z,17.43
2023-02-12T05:48:11.742Z,16.40
2023-02-12T05:50:38.366Z,18.00
2023-02-12T05:53:04.946Z,17.13
2023-02-12T05:55:31.581Z,17.67
2023-02-12T05:57:58.202Z,17.37
2023-02-12T06:00:25.079Z,17.57
2023-02-12T06:02:51.751Z,16.90
2023-02-12T06:05:18.468Z,18.10
2023-02-12T06:10:17.560Z,17.57
2023-02-12T06:12:44.127Z,17.20
2023-02-12T06:15:10.901Z,16.80
2023-02-12T06:17:37.544Z,17.00
2023-02-12T06:20:04.615Z,17.27
2023-02-12T06:22:31.242Z,18.33
2023-02-12T06:24:57.807Z,16.87
2023-02-12T06:27:24.356Z,17.57
2023-02-12T06:29:50.932Z,17.90
2023-02-12T06:32:17.816Z,17.90
2023-02-12T06:34:44.536Z,18.30
2023-02-12T06:37:12.096Z,17.43
2023-02-12T06:39:38.766Z,17.80
2023-02-12T06:42:05.463Z,18.37
2023-02-12T06:44:32.077Z,18.80
2023-02-12T06:46:59.297Z,18.00
2023-02-12T06:51:57.652Z,18.70
2023-02-12T06:54:24.385Z,17.73
2023-02-12T06:56:51.014Z,18.17
2023-02-12T06:59:17.872Z,18.73
2023-02-12T07:01:44.919Z,19.03
2023-02-12T07:04:11.755Z,18.40
2023-02-12T07:06:38.697Z,19.63
2023-02-12T07:09:05.874Z,19.47
2023-02-12T07:11:37.785Z,20.37
2023-02-12T07:14:05.271Z,20.67
2023-02-12T07:19:03.320Z,21.27
2023-02-12T07:21:30.000Z,20.57
2023-02-12T07:23:56.650Z,21.17
2023-02-12T07:26:23.533Z,21.10
2023-02-12T07:28:52.293Z,20.57
2023-02-12T07:31:22.035Z,20.43
2023-02-12T07:33:49.494Z,20.57
2023-02-12T07:36:20.585Z,19.30
2023-02-12T07:38:48.210Z,19.37
2023-02-12T07:41:20.677Z,18.23
2023-02-12T07:43:49.474Z,18.97
2023-02-12T07:46:19.143Z,19.53
2023-02-12T07:48:47.049Z,18.53
2023-02-12T07:51:16.197Z,18.93
2023-02-12T07:53:43.216Z,19.27
2023-02-12T07:56:12.311Z,20.07
2023-02-12T07:58:40.432Z,19.30
2023-02-12T08:01:15.825Z,19.87
2023-02-12T08:03:43.284Z,18.40
2023-02-12T08:06:16.751Z,18.57
2023-02-12T08:11:15.939Z,19.60
2023-02-12T08:13:43.201Z,19.20
2023-02-12T08:16:13.531Z,20.30
2023-02-12T08:18:40.916Z,19.40
2023-02-12T08:21:21.462Z,19.57
2023-02-12T08:26:42.949Z,19.43
2023-02-12T08:29:13.260Z,20.37
2023-02-12T08:31:46.183Z,20.40
2023-02-12T08:34:20.235Z,18.90
2023-02-12T08:36:48.493Z,19.70
2023-02-12T08:39:15.404Z,20.70
2023-02-12T08:41:45.159Z,20.03
2023-02-12T08:44:13.331Z,21.30
2023-02-12T08:49:20.930Z,20.97
2023-02-12T08:51:50.053Z,20.40
2023-02-12T08:54:20.712Z,13.97
2023-02-12T08:56:47.451Z,19.23
2023-02-12T08:59:16.166Z,20.87
2023-02-12T09:01:44.191Z,21.23
2023-02-12T09:04:21.608Z,22.20
2023-02-12T09:06:49.831Z,21.47
2023-02-12T09:09:16.836Z,20.27
2023-02-12T09:11:44.879Z,21.60
2023-02-12T09:14:16.794Z,21.27
2023-02-12T09:16:44.146Z,20.17
2023-02-12T09:19:13.596Z,20.70
2023-02-12T09:21:40.335Z,20.13
2023-02-12T09:24:07.176Z,21.07
2023-02-12T09:26:33.852Z,19.80
2023-02-12T09:29:02.552Z,20.13
2023-02-12T09:31:31.313Z,20.43
2023-02-12T09:34:01.170Z,20.37
2023-02-12T09:36:28.581Z,16.20
2023-02-12T09:41:46.731Z,21.27
2023-02-12T09:44:45.408Z,20.17
2023-02-12T09:47:40.143Z,19.80
2023-02-12T09:50:30.600Z,18.97
2023-02-12T09:52:59.343Z,19.33
2023-02-12T09:55:30.342Z,19.90
2023-02-12T09:57:57.154Z,19.93
2023-02-12T10:00:31.229Z,20.13
2023-02-12T10:03:05.003Z,18.17
2023-02-12T10:05:35.723Z,14.77
2023-02-12T10:08:52.793Z,15.93
2023-02-12T10:11:35.294Z,16.90
2023-02-12T10:14:21.844Z,16.00
2023-02-12T10:17:00.463Z,13.63
2023-02-12T10:19:45.479Z,12.93
2023-02-12T10:22:28.445Z,10.30
2023-02-12T10:25:18.541Z,11.70
2023-02-12T10:27:50.506Z,9.17
2023-02-12T10:30:22.135Z,7.73
2023-02-12T10:32:53.003Z,7.90
2023-02-12T10:35:21.947Z,7.90
2023-02-12T10:37:54.248Z,6.90
2023-02-12T10:40:27.747Z,7.27
2023-02-12T10:42:54.689Z,6.40
2023-02-12T10:45:29.328Z,7.07
2023-02-12T10:48:06.015Z,7.30
2023-02-12T10:50:51.288Z,5.97
2023-02-12T10:53:24.216Z,5.43
2023-02-12T10:56:10.742Z,7.10
2023-02-12T10:58:40.052Z,6.93
2023-02-12T11:01:17.922Z,6.03
2023-02-12T11:03:44.485Z,5.90
2023-02-12T11:06:20.126Z,5.63
2023-02-12T11:08:46.902Z,5.07
2023-02-12T11:11:20.912Z,4.43
2023-02-12T11:13:56.532Z,3.87
2023-02-12T11:16:40.592Z,4.40
2023-02-12T11:19:18.284Z,4.67
2023-02-12T11:21:44.990Z,4.90
2023-02-12T11:24:26.701Z,4.30
2023-02-12T11:27:19.615Z,4.90
2023-02-12T11:29:49.767Z,4.60
2023-02-12T11:32:18.672Z,5.07
2023-02-12T11:35:08.812Z,5.20
2023-02-12T11:37:41.414Z,5.30
2023-02-12T11:40:16.764Z,5.43
2023-02-12T11:42:49.472Z,5.13
2023-02-12T11:45:19.961Z,5.47
2023-02-12T11:47:47.864Z,4.90
2023-02-12T11:50:24.688Z,5.13
2023-02-12T11:52:53.970Z,4.20
2023-02-12T11:55:34.999Z,4.83
2023-02-12T11:58:13.576Z,4.67
2023-02-12T12:00:49.161Z,4.97
2023-02-12T12:03:23.095Z,4.03
2023-02-12T12:05:52.752Z,5.00
2023-02-12T12:08:29.676Z,4.50
2023-02-12T12:11:19.363Z,4.10
2023-02-12T12:14:04.194Z,4.57
2023-02-12T12:17:15.742Z,4.57
2023-02-12T12:23:03.513Z,4.23
2023-02-12T12:25:52.648Z,4.53
2023-02-12T12:28:39.538Z,4.10
2023-02-12T12:31:21.232Z,4.20
2023-02-12T12:34:11.766Z,3.90
2023-02-12T12:39:18.811Z,3.80
2023-02-12T12:41:52.317Z,3.60
2023-02-12T12:44:38.480Z,3.70
2023-02-12T12:47:27.845Z,3.20
2023-02-12T12:50:33.377Z,3.57
2023-02-12T12:53:19.073Z,3.80
2023-02-12T12:56:08.237Z,3.27
2023-02-12T13:01:58.360Z,3.33
2023-02-12T13:04:32.848Z,3.67
2023-02-12T13:07:02.127Z,3.87
2023-02-12T13:09:57.328Z,4.20
2023-02-12T13:12:36.167Z,4.93
2023-02-12T13:15:37.665Z,4.70
2023-02-12T13:18:09.968Z,4.47
2023-02-12T13:20:48.940Z,4.90
2023-02-12T13:23:24.472Z,4.40
2023-02-12T13:26:04.224Z,3.87
2023-02-12T13:28:52.865Z,4.27
2023-02-12T13:31:34.561Z,4.00
2023-02-12T13:34:07.178Z,4.60
2023-02-12T13:36:36.776Z,3.93
2023-02-12T13:39:32.241Z,3.77
2023-02-12T13:42:08.820Z,4.00
2023-02-12T13:45:01.948Z,3.63
2023-02-12T13:47:45.542Z,3.40
2023-02-12T13:50:30.779Z,2.97
2023-02-12T13:53:07.823Z,3.10
2023-02-12T13:55:46.731Z,2.83
2023-02-12T13:58:32.057Z,2.77
2023-02-12T14:01:03.987Z,2.40
2023-02-12T14:03:31.930Z,2.07
2023-02-12T14:06:18.636Z,1.93
2023-02-12T14:08:51.023Z,1.90
2023-02-12T14:11:24.660Z,2.20
2023-02-12T14:13:55.472Z,2.40
2023-02-12T14:16:31.035Z,2.30
2023-02-12T14:19:35.297Z,2.37
2023-02-12T14:22:09.845Z,2.20
2023-02-12T14:24:36.362Z,2.00
2023-02-12T14:27:17.618Z,1.97
2023-02-12T14:30:07.929Z,1.83
2023-02-12T14:32:57.905Z,1.97
2023-02-12T14:35:30.070Z,1.70
2023-02-12T14:38:16.591Z,1.97
2023-02-12T14:40:45.522Z,1.80
2023-02-12T14:43:32.074Z,1.70
2023-02-12T14:46:23.511Z,1.90
2023-02-12T14:49:06.026Z,1.90
2023-02-12T14:51:45.006Z,2.10
2023-02-12T14:54:42.452Z,1.93
2023-02-12T14:57:20.162Z,2.10
2023-02-12T14:59:49.222Z,1.87
2023-02-12T15:02:25.968Z,2.03
2023-02-12T15:04:55.266Z,2.20
2023-02-12T15:07:43.603Z,1.70
2023-02-12T15:10:17.612Z,1.73
2023-02-12T15:13:10.508Z,1.90
2023-02-12T15:15:49.403Z,2.00
2023-02-12T15:18:24.602Z,2.07
2023-02-12T15:20:59.720Z,2.17
2023-02-12T15:23:39.581Z,1.77
2023-02-12T15:26:12.377Z,1.90
2023-02-12T15:28:40.136Z,1.97
2023-02-12T15:31:11.508Z,2.00
2023-02-12T15:33:45.764Z,2.20
2023-02-12T15:36:18.307Z,2.00
2023-02-12T15:38:49.610Z,2.27
2023-02-12T15:41:34.178Z,2.03
2023-02-12T15:44:04.152Z,1.90
2023-02-12T15:51:49.787Z,3.20
2023-02-12T15:54:20.277Z,2.50
2023-02-12T15:56:47.194Z,2.10
2023-02-12T15:59:25.172Z,2.37
2023-02-12T16:02:02.405Z,2.77
2023-02-12T16:04:34.311Z,2.43
2023-02-12T16:07:01.904Z,2.30
2023-02-12T16:09:34.054Z,2.23
2023-02-12T16:12:03.732Z,2.30
2023-02-12T16:14:44.899Z,2.40
2023-02-12T16:17:29.432Z,2.30
2023-02-12T16:20:06.756Z,2.17
2023-02-12T16:22:41.160Z,2.27
2023-02-12T16:25:33.231Z,2.30
2023-02-12T16:28:18.964Z,2.70
2023-02-12T16:30:48.545Z,2.93
2023-02-12T16:36:30.596Z,3.10
2023-02-12T16:39:05.306Z,3.30
2023-02-12T16:41:34.154Z,3.30
2023-02-12T16:44:00.746Z,3.40
2023-02-12T16:46:33.287Z,3.50
2023-02-12T16:49:01.448Z,3.50
2023-02-12T16:51:28.195Z,3.00
2023-02-12T16:53:57.847Z,3.13
2023-02-12T16:56:29.952Z,3.30
2023-02-12T16:58:58.957Z,4.97
2023-02-12T17:01:34.200Z,4.47
2023-02-12T17:04:04.494Z,5.07
2023-02-12T17:06:32.235Z,3.30
2023-02-12T17:08:59.766Z,3.43
2023-02-12T17:11:28.162Z,3.37
2023-02-12T17:13:55.765Z,3.30
2023-02-12T17:16:31.882Z,3.40
2023-02-12T17:19:00.186Z,3.87
2023-02-12T17:24:21.168Z,4.70
2023-02-12T17:26:50.549Z,4.70
2023-02-12T17:29:18.255Z,4.13
2023-02-12T17:31:45.470Z,4.60
2023-02-12T17:34:12.204Z,4.80
2023-02-12T17:36:38.830Z,4.80
2023-02-12T17:39:07.219Z,5.00
2023-02-12T17:41:34.173Z,4.97
2023-02-12T17:44:01.120Z,4.80
2023-02-12T17:49:06.633Z,5.63
2023-02-12T17:51:33.242Z,5.70
2023-02-12T17:53:59.837Z,6.90
2023-02-12T17:56:26.385Z,5.23
2023-02-12T17:58:53.138Z,5.57
2023-02-12T18:01:22.615Z,5.10
2023-02-12T18:03:52.341Z,5.30
2023-02-12T18:06:28.417Z,5.17
2023-02-12T18:08:57.096Z,5.20
2023-02-12T18:11:24.227Z,5.53
2023-02-12T18:13:58.683Z,6.47
2023-02-12T18:16:27.668Z,5.80
2023-02-12T18:18:54.901Z,5.10
2023-02-12T18:21:21.720Z,5.83
2023-02-12T18:23:48.402Z,5.73
2023-02-12T18:26:17.352Z,5.83
2023-02-12T18:28:44.538Z,5.83
2023-02-12T18:31:12.226Z,5.97
2023-02-12T18:33:39.215Z,7.77
2023-02-12T18:36:09.641Z,6.60
2023-02-12T18:38:38.392Z,5.23
2023-02-12T18:41:23.805Z,5.63
2023-02-12T18:43:50.518Z,5.83
2023-02-12T18:46:24.520Z,6.43
2023-02-12T18:48:52.020Z,6.17
2023-02-12T18:51:22.683Z,6.00
2023-02-12T18:53:57.221Z,6.50
2023-02-12T18:56:23.960Z,7.07
2023-02-12T18:58:55.246Z,6.23
2023-02-12T19:04:02.525Z,6.40
2023-02-12T19:06:30.808Z,6.80
2023-02-12T19:08:59.635Z,6.67
2023-02-12T19:11:27.926Z,6.70
2023-02-12T19:13:55.165Z,6.53
2023-02-12T19:16:23.885Z,6.93
2023-02-12T19:18:52.015Z,7.60
2023-02-12T19:21:19.055Z,8.10
2023-02-12T19:23:45.748Z,7.87
2023-02-12T19:26:15.611Z,7.27
2023-02-12T19:28:43.294Z,6.93
2023-02-12T19:31:37.728Z,6.43
2023-02-12T19:34:07.218Z,6.87
2023-02-12T19:36:36.044Z,8.93
2023-02-12T19:39:04.811Z,7.97
2023-02-12T19:41:33.056Z,7.17
2023-02-12T19:44:01.515Z,6.93
2023-02-12T19:49:02.842Z,6.53
2023-02-12T19:51:30.609Z,6.60
2023-02-12T19:54:02.394Z,6.87
2023-02-12T19:56:29.439Z,6.13
2023-02-12T19:58:57.512Z,6.77
2023-02-12T20:03:58.955Z,6.57
2023-02-12T20:06:29.848Z,7.63
2023-02-12T20:08:56.978Z,7.90
2023-02-12T20:11:25.813Z,8.63
2023-02-12T20:13:52.937Z,9.27
2023-02-12T20:16:22.575Z,8.33
2023-02-12T20:18:51.377Z,9.00
2023-02-12T20:21:20.930Z,8.10
2023-02-12T20:23:47.628Z,8.20
2023-02-12T20:26:14.971Z,9.23
2023-02-12T20:33:57.036Z,8.50
2023-02-12T20:36:24.402Z,8.33
2023-02-12T20:38:58.447Z,7.97
2023-02-12T20:41:26.959Z,8.47
2023-02-12T20:43:53.902Z,8.00
2023-02-12T20:46:23.362Z,8.20
2023-02-12T20:48:50.130Z,7.57
2023-02-12T20:51:19.529Z,7.70
2023-02-12T20:53:46.886Z,7.63
2023-02-12T20:56:25.284Z,11.83
2023-02-12T20:58:52.619Z,9.00
2023-02-12T21:01:25.693Z,8.80
2023-02-12T21:03:55.165Z,8.97
2023-02-12T21:06:23.561Z,8.47
2023-02-12T21:08:51.460Z,8.60
2023-02-12T21:11:22.005Z,9.03
2023-02-12T21:13:58.891Z,8.43
2023-02-12T21:16:33.470Z,9.40
2023-02-12T21:19:00.462Z,8.40
2023-02-12T21:21:29.623Z,9.07
2023-02-12T21:23:58.337Z,8.10
2023-02-12T21:26:27.239Z,8.70
2023-02-12T21:28:56.114Z,9.20
2023-02-12T21:31:29.163Z,8.93
2023-02-12T21:33:57.704Z,9.17
2023-02-12T21:36:26.689Z,8.90
2023-02-12T21:38:53.345Z,8.73
2023-02-12T21:41:23.559Z,8.80
2023-02-12T21:43:52.657Z,9.83
2023-02-12T21:46:21.753Z,8.93
2023-02-12T21:51:27.169Z,9.17
2023-02-12T21:54:06.211Z,8.90
2023-02-12T21:56:32.937Z,9.30
2023-02-12T21:58:59.717Z,8.53
2023-02-12T22:01:33.206Z,8.60
2023-02-12T22:04:01.497Z,8.60
2023-02-12T22:06:28.090Z,8.60
2023-02-12T22:08:56.790Z,9.33
2023-02-12T22:11:23.501Z,8.43
2023-02-12T22:13:50.117Z,9.37
2023-02-12T22:16:18.153Z,8.73
2023-02-12T22:18:46.259Z,8.90
2023-02-12T22:21:15.306Z,9.63
2023-02-12T22:23:43.274Z,8.47
2023-02-12T22:26:14.212Z,9.47
2023-02-12T22:28:43.282Z,8.93
2023-02-12T22:31:12.381Z,8.67
2023-02-12T22:33:39.167Z,8.63
2023-02-12T22:36:08.260Z,9.70
2023-02-12T22:38:36.181Z,9.83
2023-02-12T22:41:03.292Z,9.93
2023-02-12T22:46:02.210Z,9.47
2023-02-12T22:48:29.682Z,8.77
2023-02-12T22:50:57.651Z,9.80
2023-02-12T22:53:25.336Z,9.77
2023-02-12T22:58:29.982Z,9.13
2023-02-12T23:00:56.989Z,8.67
2023-02-12T23:03:23.810Z,9.00
2023-02-12T23:05:50.348Z,8.40
2023-02-12T23:08:16.913Z,8.93
2023-02-12T23:10:43.951Z,9.40
2023-02-12T23:13:13.543Z,9.33
2023-02-12T23:15:45.111Z,9.27
2023-02-12T23:18:11.651Z,9.57
2023-02-12T23:20:39.909Z,8.33
2023-02-12T23:23:06.478Z,9.00
2023-02-12T23:25:33.003Z,8.70
2023-02-12T23:27:59.696Z,9.53
2023-02-12T23:30:26.444Z,9.50
2023-02-12T23:32:53.079Z,8.90
2023-02-12T23:35:19.727Z,9.17
2023-02-12T23:37:46.271Z,10.20
2023-02-12T23:40:13.555Z,9.60
2023-02-12T23:42:40.971Z,9.30
2023-02-12T23:45:09.176Z,9.40
2023-02-12T23:47:35.845Z,9.53
2023-02-12T23:50:02.368Z,9.73
2023-02-12T23:52:28.900Z,9.50
2023-02-12T23:54:56.868Z,8.97
2023-02-12T23:57:23.482Z,9.07
2023-02-12T23:59:50.165Z,9.20
